createdAt,value
2023-01-17T00:01:57.406Z,14.68
2023-01-17T00:04:42.577Z,7.85
2023-01-17T00:07:29.721Z,7.28
2023-01-17T00:10:00.156Z,7.18
2023-01-17T00:12:29.981Z,7.88
2023-01-17T00:14:59.173Z,6.85
2023-01-17T00:17:28.395Z,7.60
2023-01-17T00:20:13.976Z,8.77
2023-01-17T00:23:01.606Z,7.18
2023-01-17T00:25:51.645Z,6.82
2023-01-17T00:28:18.667Z,6.80
2023-01-17T00:30:46.031Z,7.25
2023-01-17T00:33:12.617Z,10.57
2023-01-17T00:35:39.717Z,7.68
2023-01-17T00:38:08.112Z,7.20
2023-01-17T00:40:40.097Z,6.82
2023-01-17T00:43:26.292Z,6.20
2023-01-17T00:46:11.983Z,8.68
2023-01-17T00:48:57.881Z,8.93
2023-01-17T00:51:44.432Z,12.60
2023-01-17T00:54:29.751Z,8.65
2023-01-17T00:57:16.339Z,11.63
2023-01-17T01:00:02.433Z,13.50
2023-01-17T01:02:48.244Z,12.50
2023-01-17T01:05:33.949Z,13.13
2023-01-17T01:08:19.952Z,12.70
2023-01-17T01:11:06.690Z,10.05
2023-01-17T01:13:53.200Z,11.65
2023-01-17T01:16:38.805Z,8.68
2023-01-17T01:19:23.966Z,10.80
2023-01-17T01:22:09.142Z,7.32
2023-01-17T01:24:54.323Z,8.63
2023-01-17T01:27:39.628Z,7.72
2023-01-17T01:30:27.023Z,5.68
2023-01-17T01:33:12.201Z,7.22
2023-01-17T01:35:41.774Z,4.40
2023-01-17T01:38:09.670Z,3.25
2023-01-17T01:40:43.113Z,3.45
2023-01-17T01:43:13.046Z,2.60
2023-01-17T01:45:46.933Z,3.85
2023-01-17T01:48:36.351Z,6.20
2023-01-17T01:51:08.609Z,7.15
2023-01-17T01:53:39.196Z,4.70
2023-01-17T01:56:11.153Z,4.78
2023-01-17T01:58:40.937Z,6.15
2023-01-17T02:01:10.583Z,5.18
2023-01-17T02:03:41.857Z,4.70
2023-01-17T02:06:20.403Z,6.95
2023-01-17T02:08:49.598Z,9.30
2023-01-17T02:11:17.327Z,13.38
2023-01-17T02:13:45.024Z,12.95
2023-01-17T02:16:25.520Z,14.85
2023-01-17T02:19:04.026Z,11.88
2023-01-17T02:21:34.796Z,8.65
2023-01-17T02:24:54.163Z,6.60
2023-01-17T02:27:26.709Z,8.70
2023-01-17T02:30:33.092Z,9.98
2023-01-17T02:33:13.851Z,8.30
2023-01-17T02:35:49.313Z,8.05
2023-01-17T02:38:31.149Z,10.77
2023-01-17T02:41:05.179Z,5.45
2023-01-17T02:43:34.020Z,4.97
2023-01-17T02:46:03.088Z,3.05
2023-01-17T02:48:33.467Z,2.28
2023-01-17T02:51:18.013Z,1.85
2023-01-17T02:53:59.226Z,2.88
2023-01-17T02:56:36.452Z,1.67
2023-01-17T02:59:12.345Z,3.95
2023-01-17T03:01:54.255Z,2.30
2023-01-17T03:04:25.696Z,1.80
2023-01-17T03:06:58.196Z,1.08
2023-01-17T03:09:27.113Z,1.48
2023-01-17T03:11:54.860Z,1.30
2023-01-17T03:14:22.500Z,8.88
2023-01-17T03:16:51.679Z,3.13
2023-01-17T03:19:19.406Z,4.03
2023-01-17T03:21:47.004Z,2.00
2023-01-17T03:24:14.596Z,5.57
2023-01-17T03:26:44.776Z,3.10
2023-01-17T03:29:12.654Z,3.88
2023-01-17T03:31:40.228Z,2.05
2023-01-17T03:34:09.213Z,3.67
2023-01-17T03:36:36.810Z,2.45
2023-01-17T03:39:04.469Z,5.43
2023-01-17T03:41:32.119Z,4.50
2023-01-17T03:44:00.793Z,4.18
2023-01-17T03:46:29.557Z,5.10
2023-01-17T03:48:57.168Z,6.65
2023-01-17T03:51:26.184Z,6.90
2023-01-17T03:53:53.785Z,4.97
2023-01-17T03:56:21.519Z,4.38
2023-01-17T03:58:49.219Z,4.97
2023-01-17T04:01:16.966Z,4.57
2023-01-17T04:03:44.641Z,3.63
2023-01-17T04:06:12.359Z,3.55
2023-01-17T04:08:41.571Z,4.78
2023-01-17T04:11:09.198Z,4.60
2023-01-17T04:13:36.782Z,3.83
2023-01-17T04:16:04.772Z,4.90
2023-01-17T04:18:32.643Z,5.70
2023-01-17T04:21:00.278Z,6.03
2023-01-17T04:23:27.956Z,6.43
2023-01-17T04:25:56.884Z,12.68
2023-01-17T04:28:24.475Z,11.82
2023-01-17T04:30:52.282Z,11.27
2023-01-17T04:33:19.932Z,7.18
2023-01-17T04:35:47.489Z,10.95
2023-01-17T04:38:15.102Z,13.00
2023-01-17T04:40:42.659Z,8.90
2023-01-17T04:43:11.740Z,7.63
2023-01-17T04:45:39.746Z,10.63
2023-01-17T04:48:08.257Z,8.95
2023-01-17T04:50:35.839Z,10.50
2023-01-17T04:53:03.434Z,11.75
2023-01-17T04:55:31.054Z,13.55
2023-01-17T04:57:58.687Z,12.40
2023-01-17T05:00:27.768Z,10.90
2023-01-17T05:02:55.531Z,8.00
2023-01-17T05:05:23.508Z,11.18
2023-01-17T05:07:55.454Z,12.35
2023-01-17T05:10:23.515Z,11.45
2023-01-17T05:12:55.431Z,11.50
2023-01-17T05:15:23.576Z,10.55
2023-01-17T05:17:53.976Z,11.70
2023-01-17T05:20:22.601Z,7.78
2023-01-17T05:22:55.410Z,10.80
2023-01-17T05:25:24.114Z,7.50
2023-01-17T05:27:51.830Z,7.03
2023-01-17T05:30:20.554Z,6.60
2023-01-17T05:32:50.310Z,11.45
2023-01-17T05:35:20.645Z,14.23
2023-01-17T05:37:49.937Z,14.40
2023-01-17T05:40:17.851Z,11.85
2023-01-17T05:42:47.120Z,15.05
2023-01-17T05:45:16.828Z,8.30
2023-01-17T05:47:44.612Z,9.98
2023-01-17T05:50:12.974Z,8.60
2023-01-17T05:52:42.496Z,14.25
2023-01-17T05:55:10.869Z,13.02
2023-01-17T05:57:39.719Z,9.40
2023-01-17T06:00:08.768Z,13.07
2023-01-17T06:02:36.581Z,12.20
2023-01-17T06:05:04.705Z,10.20
2023-01-17T06:07:32.522Z,12.50
2023-01-17T06:10:01.790Z,8.70
2023-01-17T06:12:29.446Z,13.82
2023-01-17T06:14:57.090Z,10.20
2023-01-17T06:17:24.972Z,10.75
2023-01-17T06:19:52.578Z,13.45
2023-01-17T06:22:20.283Z,10.38
2023-01-17T06:24:47.953Z,8.85
2023-01-17T06:27:17.053Z,17.13
2023-01-17T06:29:44.841Z,13.20
2023-01-17T06:32:13.994Z,12.27
2023-01-17T06:34:41.874Z,12.35
2023-01-17T06:37:11.236Z,13.93
2023-01-17T06:39:38.985Z,11.32
2023-01-17T06:42:06.779Z,18.23
2023-01-17T06:44:35.849Z,18.40
2023-01-17T06:47:03.505Z,19.02
2023-01-17T06:49:31.171Z,19.13
2023-01-17T06:51:58.816Z,15.57
2023-01-17T06:54:26.953Z,15.80
2023-01-17T06:56:54.683Z,15.68
2023-01-17T06:59:22.551Z,18.90
2023-01-17T07:01:52.446Z,15.85
2023-01-17T07:04:20.285Z,24.50
2023-01-17T07:06:48.016Z,15.35
2023-01-17T07:09:15.913Z,16.50
2023-01-17T07:11:45.264Z,22.10
2023-01-17T07:14:16.623Z,22.48
2023-01-17T07:16:46.185Z,24.58
2023-01-17T07:19:15.510Z,23.48
2023-01-17T07:21:43.198Z,20.90
2023-01-17T07:24:11.284Z,25.17
2023-01-17T07:26:40.154Z,20.38
2023-01-17T07:29:07.980Z,28.20
2023-01-17T07:31:37.935Z,22.52
2023-01-17T07:34:05.719Z,18.88
2023-01-17T07:36:34.884Z,21.50
2023-01-17T07:39:04.854Z,18.40
2023-01-17T07:41:34.750Z,27.25
2023-01-17T07:44:06.068Z,24.95
2023-01-17T07:46:33.807Z,23.10
2023-01-17T07:49:01.612Z,18.27
2023-01-17T07:51:29.558Z,29.40
2023-01-17T07:53:58.613Z,23.40
2023-01-17T07:56:26.550Z,30.65
2023-01-17T07:58:54.198Z,26.05
2023-01-17T08:01:22.105Z,24.77
2023-01-17T08:03:54.773Z,27.42
2023-01-17T08:06:24.733Z,26.67
2023-01-17T08:08:54.960Z,26.30
2023-01-17T08:11:24.002Z,24.52
2023-01-17T08:13:57.178Z,32.13
2023-01-17T08:16:25.523Z,26.67
2023-01-17T08:18:53.826Z,37.30
2023-01-17T08:21:21.565Z,26.90
2023-01-17T08:23:49.661Z,25.50
2023-01-17T08:26:21.307Z,21.65
2023-01-17T08:28:55.625Z,27.10
2023-01-17T08:31:24.933Z,37.92
2023-01-17T08:33:52.827Z,25.25
2023-01-17T08:36:20.682Z,32.92
2023-01-17T08:38:52.712Z,24.38
2023-01-17T08:41:20.816Z,33.92
2023-01-17T08:43:48.830Z,28.13
2023-01-17T08:46:19.156Z,25.67
2023-01-17T08:48:47.175Z,24.05
2023-01-17T08:51:15.127Z,22.55
2023-01-17T08:53:42.792Z,27.48
2023-01-17T08:56:10.500Z,26.67
2023-01-17T08:58:38.139Z,24.92
2023-01-17T09:01:07.053Z,24.00
2023-01-17T09:03:37.930Z,27.90
2023-01-17T09:06:10.798Z,29.17
2023-01-17T09:08:39.336Z,23.75
2023-01-17T09:11:09.664Z,26.75
2023-01-17T09:13:38.161Z,23.85
2023-01-17T09:16:07.275Z,22.65
2023-01-17T09:18:37.171Z,21.45
2023-01-17T09:21:39.129Z,23.90
2023-01-17T09:24:31.325Z,16.77
2023-01-17T09:30:43.957Z,23.73
2023-01-17T09:33:15.854Z,25.90
2023-01-17T09:36:17.837Z,26.02
2023-01-17T09:38:52.627Z,27.00
2023-01-17T09:41:59.097Z,19.02
2023-01-17T09:45:07.584Z,21.73
2023-01-17T09:47:47.458Z,25.77
2023-01-17T09:50:25.393Z,28.73
2023-01-17T09:53:00.655Z,24.48
2023-01-17T09:55:35.406Z,23.77
2023-01-17T09:58:07.178Z,19.35
2023-01-17T10:00:46.533Z,18.92
2023-01-17T10:03:32.342Z,28.08
2023-01-17T10:06:11.161Z,24.25
2023-01-17T10:08:51.857Z,16.85
2023-01-17T10:11:32.704Z,15.82
2023-01-17T10:14:15.251Z,14.80
2023-01-17T10:16:55.305Z,12.70
2023-01-17T10:19:37.009Z,17.55
2023-01-17T10:22:26.840Z,15.13
2023-01-17T10:25:36.407Z,22.80
2023-01-17T10:28:13.467Z,14.23
2023-01-17T10:30:48.776Z,10.68
2023-01-17T10:33:20.923Z,16.17
2023-01-17T10:35:54.924Z,13.85
2023-01-17T10:38:27.673Z,9.20
2023-01-17T10:41:00.627Z,13.20
2023-01-17T10:43:39.196Z,12.60
2023-01-17T10:46:15.065Z,11.23
2023-01-17T10:48:45.891Z,10.70
2023-01-17T10:51:27.790Z,12.50
2023-01-17T10:54:10.981Z,10.13
2023-01-17T10:56:41.959Z,12.40
2023-01-17T10:59:18.851Z,10.23
2023-01-17T11:01:46.620Z,11.00
2023-01-17T11:04:20.728Z,10.67
2023-01-17T11:06:57.941Z,11.85
2023-01-17T11:09:38.639Z,14.88
2023-01-17T11:12:19.401Z,9.60
2023-01-17T11:14:58.979Z,10.40
2023-01-17T11:17:27.762Z,16.00
2023-01-17T11:19:55.801Z,18.00
2023-01-17T11:22:24.849Z,15.00
2023-01-17T11:24:56.088Z,10.63
2023-01-17T11:27:27.743Z,11.67
2023-01-17T11:30:05.971Z,10.17
2023-01-17T11:32:35.299Z,8.63
2023-01-17T11:35:18.093Z,9.37
2023-01-17T11:37:50.954Z,14.40
2023-01-17T11:40:26.519Z,15.50
2023-01-17T11:43:06.637Z,19.33
2023-01-17T11:45:35.575Z,15.60
2023-01-17T11:48:21.887Z,12.40
2023-01-17T11:50:57.791Z,6.67
2023-01-17T11:53:27.422Z,14.83
2023-01-17T11:56:03.275Z,9.80
2023-01-17T11:58:33.919Z,12.70
2023-01-17T12:01:22.911Z,9.57
2023-01-17T12:04:17.968Z,18.17
2023-01-17T12:06:58.618Z,14.13
2023-01-17T12:09:34.460Z,10.27
2023-01-17T12:12:30.329Z,10.87
2023-01-17T12:15:07.274Z,10.50
2023-01-17T12:17:52.788Z,11.30
2023-01-17T12:20:25.859Z,11.18
2023-01-17T12:23:13.735Z,20.43
2023-01-17T12:25:54.888Z,12.05
2023-01-17T12:28:46.145Z,10.65
2023-01-17T12:31:26.435Z,16.50
2023-01-17T12:33:58.582Z,10.70
2023-01-17T12:36:38.605Z,11.00
2023-01-17T12:39:11.793Z,10.95
2023-01-17T12:41:56.650Z,16.63
2023-01-17T12:44:36.249Z,8.43
2023-01-17T12:47:07.239Z,14.75
2023-01-17T12:49:42.351Z,11.30
2023-01-17T12:52:20.348Z,11.60
2023-01-17T12:54:53.226Z,7.35
2023-01-17T12:57:24.654Z,9.68
2023-01-17T12:59:59.224Z,14.53
2023-01-17T13:02:37.110Z,9.90
2023-01-17T13:05:10.564Z,8.20
2023-01-17T13:07:46.756Z,5.47
2023-01-17T13:10:32.078Z,14.30
2023-01-17T13:13:05.747Z,12.33
2023-01-17T13:15:40.645Z,7.20
2023-01-17T13:18:15.460Z,9.30
2023-01-17T13:20:56.645Z,11.37
2023-01-17T13:23:30.264Z,8.30
2023-01-17T13:26:00.007Z,5.83
2023-01-17T13:28:43.987Z,6.80
2023-01-17T13:31:31.546Z,7.70
2023-01-17T13:34:33.781Z,9.27
2023-01-17T13:37:19.758Z,10.00
2023-01-17T13:40:03.868Z,6.83
2023-01-17T13:42:39.996Z,9.87
2023-01-17T13:45:09.670Z,15.87
2023-01-17T13:47:42.528Z,8.73
2023-01-17T13:50:46.774Z,5.23
2023-01-17T13:53:59.964Z,14.10
2023-01-17T13:56:36.739Z,7.10
2023-01-17T13:59:06.707Z,7.73
2023-01-17T14:01:51.860Z,9.00
2023-01-17T14:04:19.930Z,8.20
2023-01-17T14:06:50.060Z,9.50
2023-01-17T14:09:26.162Z,6.00
2023-01-17T14:12:01.554Z,8.93
2023-01-17T14:14:50.273Z,6.70
2023-01-17T14:17:52.624Z,5.30
2023-01-17T14:20:59.942Z,7.20
2023-01-17T14:24:04.442Z,6.90
2023-01-17T14:26:47.483Z,6.73
2023-01-17T14:29:52.123Z,9.68
2023-01-17T14:32:23.674Z,9.30
2023-01-17T14:34:53.250Z,11.70
2023-01-17T14:37:28.971Z,8.50
2023-01-17T14:39:56.865Z,7.40
2023-01-17T14:42:27.073Z,6.85
2023-01-17T14:45:01.200Z,11.77
2023-01-17T14:47:33.399Z,4.78
2023-01-17T14:50:13.333Z,6.13
2023-01-17T14:52:41.169Z,8.18
2023-01-17T14:55:17.549Z,8.27
2023-01-17T14:57:54.570Z,9.07
2023-01-17T15:00:25.160Z,13.55
2023-01-17T15:02:54.795Z,4.70
2023-01-17T15:05:25.589Z,9.63
2023-01-17T15:07:55.460Z,9.75
2023-01-17T15:10:26.495Z,8.07
2023-01-17T15:12:54.292Z,8.23
2023-01-17T15:15:31.989Z,5.18
2023-01-17T15:18:25.879Z,4.07
2023-01-17T15:20:59.040Z,5.45
2023-01-17T15:23:31.594Z,7.15
2023-01-17T15:25:59.757Z,4.35
2023-01-17T15:28:27.879Z,4.70
2023-01-17T15:31:08.755Z,5.20
2023-01-17T15:33:40.174Z,15.63
2023-01-17T15:36:10.443Z,7.13
2023-01-17T15:38:41.416Z,7.00
2023-01-17T15:41:15.246Z,9.65
2023-01-17T15:43:45.062Z,5.90
2023-01-17T15:46:30.224Z,11.98
2023-01-17T15:49:17.782Z,13.02
2023-01-17T15:51:49.743Z,5.82
2023-01-17T15:54:33.383Z,13.75
2023-01-17T15:57:18.586Z,6.95
2023-01-17T15:59:48.837Z,8.35
2023-01-17T16:02:43.368Z,14.95
2023-01-17T16:05:46.773Z,7.75
2023-01-17T16:08:32.627Z,6.97
2023-01-17T16:11:02.884Z,9.55
2023-01-17T16:13:32.651Z,13.07
2023-01-17T16:16:19.834Z,8.00
2023-01-17T16:18:48.533Z,12.38
2023-01-17T16:21:26.806Z,15.48
2023-01-17T16:23:54.657Z,12.30
2023-01-17T16:26:22.870Z,10.55
2023-01-17T16:28:50.601Z,10.50
2023-01-17T16:31:18.761Z,12.68
2023-01-17T16:33:46.881Z,11.13
2023-01-17T16:36:16.458Z,12.15
2023-01-17T16:38:46.468Z,8.32
2023-01-17T16:41:14.101Z,10.52
2023-01-17T16:43:41.861Z,12.73
2023-01-17T16:46:12.651Z,16.70
2023-01-17T16:48:40.366Z,10.75
2023-01-17T16:51:09.291Z,7.35
2023-01-17T16:53:37.855Z,11.48
2023-01-17T16:56:13.449Z,13.65
2023-01-17T16:58:42.148Z,9.00
2023-01-17T17:01:11.409Z,10.90
2023-01-17T17:03:39.149Z,10.93
2023-01-17T17:06:07.393Z,9.38
2023-01-17T17:08:35.264Z,11.40
2023-01-17T17:11:15.668Z,12.85
2023-01-17T17:13:44.747Z,11.88
2023-01-17T17:16:15.843Z,11.90
2023-01-17T17:18:45.043Z,12.32
2023-01-17T17:21:13.556Z,14.82
2023-01-17T17:23:41.227Z,8.85
2023-01-17T17:26:08.925Z,12.38
2023-01-17T17:28:38.117Z,13.18
2023-01-17T17:31:10.262Z,13.18
2023-01-17T17:33:38.627Z,13.30
2023-01-17T17:36:09.903Z,14.80
2023-01-17T17:38:38.068Z,12.60
2023-01-17T17:41:07.552Z,13.57
2023-01-17T17:43:41.165Z,15.98
2023-01-17T17:46:09.577Z,16.75
2023-01-17T17:48:37.759Z,14.40
2023-01-17T17:51:06.220Z,12.52
2023-01-17T17:53:34.252Z,13.77
2023-01-17T17:56:06.578Z,20.38
2023-01-17T17:58:35.956Z,21.42
2023-01-17T18:01:07.448Z,14.23
2023-01-17T18:03:35.097Z,27.33
2023-01-17T18:06:05.112Z,15.68
2023-01-17T18:08:33.716Z,16.30
2023-01-17T18:11:02.420Z,17.55
2023-01-17T18:13:31.203Z,21.15
2023-01-17T18:16:05.422Z,18.13
2023-01-17T18:18:35.536Z,15.25
2023-01-17T18:21:09.037Z,16.02
2023-01-17T18:23:38.472Z,18.65
2023-01-17T18:26:06.680Z,18.17
2023-01-17T18:28:34.394Z,17.25
2023-01-17T18:31:06.891Z,24.05
2023-01-17T18:33:38.530Z,18.50
2023-01-17T18:36:10.205Z,21.98
2023-01-17T18:38:39.126Z,17.33
2023-01-17T18:41:07.819Z,16.48
2023-01-17T18:43:36.168Z,25.27
2023-01-17T18:46:04.025Z,22.77
2023-01-17T18:48:31.707Z,19.23
2023-01-17T18:51:02.843Z,22.90
2023-01-17T18:53:31.664Z,32.28
2023-01-17T18:56:01.322Z,20.77
2023-01-17T18:58:30.977Z,22.75
2023-01-17T19:01:08.473Z,25.17
2023-01-17T19:03:38.170Z,24.83
2023-01-17T19:06:08.584Z,23.35
2023-01-17T19:08:36.435Z,27.67
2023-01-17T19:11:04.561Z,25.63
2023-01-17T19:13:33.917Z,20.20
2023-01-17T19:16:02.665Z,23.70
2023-01-17T19:18:30.725Z,22.48
2023-01-17T19:21:05.604Z,20.67
2023-01-17T19:23:35.090Z,20.25
2023-01-17T19:26:02.893Z,23.45
2023-01-17T19:28:30.766Z,31.58
2023-01-17T19:31:06.785Z,26.13
2023-01-17T19:33:36.371Z,24.63
2023-01-17T19:36:06.795Z,24.20
2023-01-17T19:38:37.552Z,25.90
2023-01-17T19:41:10.182Z,21.52
2023-01-17T19:43:39.291Z,25.98
2023-01-17T19:46:08.902Z,26.98
2023-01-17T19:48:37.514Z,34.95
2023-01-17T19:51:07.590Z,46.88
2023-01-17T19:53:37.419Z,26.45
2023-01-17T19:56:06.915Z,35.65
2023-01-17T19:58:35.194Z,25.60
2023-01-17T20:01:07.685Z,33.08
2023-01-17T20:03:35.677Z,34.55
2023-01-17T20:06:03.316Z,33.20
2023-01-17T20:08:30.989Z,38.97
2023-01-17T20:11:03.414Z,27.85
2023-01-17T20:13:31.231Z,29.23
2023-01-17T20:16:02.904Z,32.30
2023-01-17T20:18:30.899Z,32.78
2023-01-17T20:21:03.252Z,28.83
2023-01-17T20:23:35.092Z,37.13
2023-01-17T20:26:04.524Z,33.65
2023-01-17T20:28:33.490Z,26.92
2023-01-17T20:31:06.619Z,25.27
2023-01-17T20:33:35.112Z,24.10
2023-01-17T20:36:10.295Z,20.80
2023-01-17T20:38:44.459Z,26.98
2023-01-17T20:41:15.803Z,22.05
2023-01-17T20:43:44.413Z,20.50
2023-01-17T20:46:13.188Z,24.48
2023-01-17T20:48:45.695Z,27.90
2023-01-17T20:51:14.290Z,26.50
2023-01-17T20:53:43.513Z,19.00
2023-01-17T20:56:12.779Z,25.88
2023-01-17T20:58:42.637Z,21.60
2023-01-17T21:01:11.943Z,27.83
2023-01-17T21:03:40.580Z,28.52
2023-01-17T21:06:10.243Z,23.83
2023-01-17T21:08:39.752Z,24.23
2023-01-17T21:11:08.690Z,20.00
2023-01-17T21:13:36.611Z,20.75
2023-01-17T21:16:06.371Z,20.63
2023-01-17T21:18:34.059Z,20.58
2023-01-17T21:21:07.284Z,19.38
2023-01-17T21:23:35.238Z,27.10
2023-01-17T21:26:02.952Z,23.25
2023-01-17T21:28:33.899Z,24.33
2023-01-17T21:31:06.925Z,20.52
2023-01-17T21:33:35.926Z,23.60
2023-01-17T21:36:08.446Z,22.98
2023-01-17T21:38:36.265Z,19.92
2023-01-17T21:41:04.230Z,18.65
2023-01-17T21:43:32.100Z,20.38
2023-01-17T21:46:03.120Z,20.50
2023-01-17T21:48:30.991Z,16.50
2023-01-17T21:51:05.709Z,18.63
2023-01-17T21:53:35.589Z,21.92
2023-01-17T21:56:21.162Z,22.48
2023-01-17T21:58:53.702Z,22.02
2023-01-17T22:01:23.783Z,19.23
2023-01-17T22:03:53.161Z,18.73
2023-01-17T22:06:23.725Z,21.98
2023-01-17T22:08:51.466Z,21.17
2023-01-17T22:11:20.670Z,27.80
2023-01-17T22:13:48.615Z,23.38
2023-01-17T22:16:18.262Z,21.55
2023-01-17T22:18:46.908Z,21.55
2023-01-17T22:21:17.035Z,29.15
2023-01-17T22:23:49.289Z,25.52
2023-01-17T22:26:17.597Z,21.38
2023-01-17T22:28:46.101Z,18.17
2023-01-17T22:31:16.185Z,18.85
2023-01-17T22:33:45.825Z,22.17
2023-01-17T22:36:15.173Z,22.02
2023-01-17T22:38:43.895Z,23.38
2023-01-17T22:41:15.907Z,21.20
2023-01-17T22:43:45.191Z,20.90
2023-01-17T22:46:15.514Z,20.75
2023-01-17T22:48:43.407Z,18.77
2023-01-17T22:51:13.410Z,28.23
2023-01-17T22:53:42.151Z,19.42
2023-01-17T22:56:12.543Z,27.73
2023-01-17T22:58:44.715Z,23.45
2023-01-17T23:01:14.647Z,22.60
2023-01-17T23:03:42.755Z,24.60
2023-01-17T23:06:12.445Z,24.70
2023-01-17T23:08:42.252Z,27.00
2023-01-17T23:11:40.642Z,22.58
2023-01-17T23:14:16.223Z,21.02
2023-01-17T23:17:04.292Z,20.88
2023-01-17T23:19:34.681Z,25.50
2023-01-17T23:22:17.604Z,20.92
2023-01-17T23:24:47.686Z,20.50
2023-01-17T23:27:35.310Z,30.38
2023-01-17T23:30:06.619Z,22.13
2023-01-17T23:32:34.270Z,24.35
2023-01-17T23:35:02.007Z,27.27
2023-01-17T23:37:48.279Z,32.58
2023-01-17T23:40:16.521Z,24.88
2023-01-17T23:43:01.680Z,21.98
2023-01-17T23:45:30.755Z,22.00
2023-01-17T23:47:58.422Z,21.30
2023-01-17T23:50:26.209Z,22.58
2023-01-17T23:52:54.006Z,22.85
2023-01-17T23:55:21.705Z,27.08
2023-01-17T23:57:50.010Z,20.55
